createdAt,value
2023-05-14T00:01:55.123Z,13.50
2023-05-14T00:04:22.494Z,13.50
2023-05-14T00:06:49.499Z,13.50
2023-05-14T00:09:16.656Z,13.40
2023-05-14T00:11:43.658Z,13.40
2023-05-14T00:14:10.547Z,13.30
2023-05-14T00:16:37.654Z,13.20
2023-05-14T00:19:04.738Z,13.20
2023-05-14T00:21:32.293Z,13.20
2023-05-14T00:23:59.341Z,13.10
2023-05-14T00:26:26.241Z,13.00
2023-05-14T00:28:53.102Z,13.00
2023-05-14T00:31:20.074Z,12.90
2023-05-14T00:33:46.979Z,12.90
2023-05-14T00:36:13.857Z,12.80
2023-05-14T00:38:40.736Z,12.80
2023-05-14T00:41:08.216Z,12.70
2023-05-14T00:43:35.533Z,12.70
2023-05-14T00:46:02.720Z,12.60
2023-05-14T00:48:30.040Z,12.60
2023-05-14T00:50:57.043Z,12.60
2023-05-14T00:53:26.996Z,12.50
2023-05-14T00:55:54.043Z,12.50
2023-05-14T00:58:22.793Z,12.50
2023-05-14T01:00:49.889Z,12.40
2023-05-14T01:03:17.218Z,12.30
2023-05-14T01:06:09.658Z,12.30
2023-05-14T01:09:00.622Z,12.20
2023-05-14T01:11:47.849Z,12.20
2023-05-14T01:14:38.401Z,12.10
2023-05-14T01:17:07.711Z,12.10
2023-05-14T01:19:44.241Z,12.00
2023-05-14T01:22:12.332Z,12.00
2023-05-14T01:24:40.148Z,11.90
2023-05-14T01:27:14.610Z,11.90
2023-05-14T01:29:51.677Z,11.80
2023-05-14T01:32:20.642Z,11.80
2023-05-14T01:34:49.124Z,11.80
2023-05-14T01:37:17.015Z,11.80
2023-05-14T01:39:45.273Z,11.80
2023-05-14T01:42:12.992Z,11.70
2023-05-14T01:44:40.385Z,11.70
2023-05-14T01:47:07.235Z,11.60
2023-05-14T01:49:34.239Z,11.60
2023-05-14T01:52:01.119Z,11.50
2023-05-14T01:54:28.019Z,11.50
2023-05-14T01:56:54.881Z,11.40
2023-05-14T01:59:21.748Z,11.40
2023-05-14T02:01:48.692Z,11.30
2023-05-14T02:04:15.910Z,11.30
2023-05-14T02:06:42.983Z,11.20
2023-05-14T02:09:09.973Z,11.20
2023-05-14T02:11:36.977Z,11.20
2023-05-14T02:14:04.099Z,11.10
2023-05-14T02:16:31.200Z,11.10
2023-05-14T02:18:58.190Z,11.00
2023-05-14T02:21:25.240Z,11.00
2023-05-14T02:23:52.217Z,11.00
2023-05-14T02:26:19.213Z,10.90
2023-05-14T02:28:46.145Z,10.90
2023-05-14T02:31:13.481Z,10.90
2023-05-14T02:33:42.060Z,10.80
2023-05-14T02:36:09.120Z,10.80
2023-05-14T02:38:36.123Z,10.70
2023-05-14T02:41:03.188Z,10.70
2023-05-14T02:43:30.124Z,10.70
2023-05-14T02:45:57.091Z,10.60
2023-05-14T02:48:24.105Z,10.60
2023-05-14T02:50:53.890Z,10.60
2023-05-14T02:53:20.868Z,10.60
2023-05-14T02:55:47.830Z,10.60
2023-05-14T02:58:15.017Z,10.60
2023-05-14T03:00:41.985Z,10.60
2023-05-14T03:03:09.374Z,10.50
2023-05-14T03:05:36.854Z,10.50
2023-05-14T03:08:03.777Z,10.50
2023-05-14T03:10:32.016Z,10.50
2023-05-14T03:12:59.183Z,10.40
2023-05-14T03:15:26.178Z,10.40
2023-05-14T03:17:53.338Z,10.40
2023-05-14T03:20:20.683Z,10.30
2023-05-14T03:22:47.748Z,10.30
2023-05-14T03:25:14.674Z,10.30
2023-05-14T03:27:41.574Z,10.30
2023-05-14T03:30:09.212Z,10.20
2023-05-14T03:32:37.459Z,10.20
2023-05-14T03:35:05.030Z,10.20
2023-05-14T03:37:32.686Z,10.10
2023-05-14T03:39:59.809Z,10.10
2023-05-14T03:42:27.069Z,10.10
2023-05-14T03:44:53.993Z,10.10
2023-05-14T03:47:20.887Z,10.10
2023-05-14T03:49:47.828Z,10.10
2023-05-14T03:52:15.409Z,10.10
2023-05-14T03:54:44.245Z,10.00
2023-05-14T03:57:11.241Z,10.00
2023-05-14T03:59:38.176Z,10.00
2023-05-14T04:02:05.227Z,10.00
2023-05-14T04:04:32.209Z,10.00
2023-05-14T04:06:59.154Z,10.00
2023-05-14T04:09:28.755Z,10.00
2023-05-14T04:11:56.811Z,10.00
2023-05-14T04:14:23.848Z,10.10
2023-05-14T04:16:50.820Z,10.10
2023-05-14T04:19:18.062Z,10.10
2023-05-14T04:21:45.260Z,10.10
2023-05-14T04:24:12.173Z,10.10
2023-05-14T04:26:39.096Z,10.10
2023-05-14T04:29:06.090Z,10.10
2023-05-14T04:31:33.825Z,10.10
2023-05-14T04:34:01.129Z,10.20
2023-05-14T04:36:28.012Z,10.20
2023-05-14T04:38:54.920Z,10.20
2023-05-14T04:41:21.854Z,10.20
2023-05-14T04:43:50.842Z,10.20
2023-05-14T04:46:17.890Z,10.30
2023-05-14T04:48:44.767Z,10.30
2023-05-14T04:51:11.676Z,10.30
2023-05-14T04:53:38.588Z,10.40
2023-05-14T04:56:06.527Z,10.40
2023-05-14T04:58:35.115Z,10.40
2023-05-14T05:01:05.102Z,10.40
2023-05-14T05:03:32.771Z,10.40
2023-05-14T05:05:59.942Z,10.50
2023-05-14T05:08:26.897Z,10.50
2023-05-14T05:10:53.837Z,10.60
2023-05-14T05:13:20.737Z,10.60
2023-05-14T05:15:47.747Z,10.70
2023-05-14T05:18:14.677Z,10.80
2023-05-14T05:20:41.574Z,10.90
2023-05-14T05:23:08.423Z,10.90
2023-05-14T05:25:35.485Z,11.00
2023-05-14T05:28:02.463Z,11.10
2023-05-14T05:30:32.021Z,11.20
2023-05-14T05:32:59.136Z,11.20
2023-05-14T05:35:26.112Z,11.40
2023-05-14T05:37:53.108Z,11.50
2023-05-14T05:40:20.400Z,11.50
2023-05-14T05:42:47.253Z,11.50
2023-05-14T05:45:14.237Z,11.60
2023-05-14T05:47:41.146Z,11.70
2023-05-14T05:50:09.661Z,11.80
2023-05-14T05:52:36.850Z,12.00
2023-05-14T05:55:05.678Z,12.00
2023-05-14T05:57:32.746Z,12.10
2023-05-14T05:59:59.648Z,12.10
2023-05-14T06:02:26.756Z,12.20
2023-05-14T06:04:53.835Z,12.30
2023-05-14T06:07:21.331Z,12.30
2023-05-14T06:09:48.306Z,12.40
2023-05-14T06:12:15.238Z,12.40
2023-05-14T06:14:42.108Z,12.50
2023-05-14T06:17:09.318Z,12.60
2023-05-14T06:19:36.375Z,12.70
2023-05-14T06:22:03.490Z,12.80
2023-05-14T06:24:30.373Z,13.00
2023-05-14T06:26:57.253Z,13.10
2023-05-14T06:29:24.984Z,13.30
2023-05-14T06:31:52.121Z,13.50
2023-05-14T06:34:19.104Z,13.60
2023-05-14T06:36:46.263Z,13.80
2023-05-14T06:39:13.295Z,14.00
2023-05-14T06:41:40.280Z,14.10
2023-05-14T06:44:10.067Z,14.20
2023-05-14T06:46:37.609Z,14.30
2023-05-14T06:49:04.586Z,14.50
2023-05-14T06:51:32.522Z,14.60
2023-05-14T06:53:59.499Z,14.80
2023-05-14T06:56:26.441Z,14.90
2023-05-14T06:58:53.327Z,15.00
2023-05-14T07:01:20.306Z,15.00
2023-05-14T07:03:47.243Z,15.10
2023-05-14T07:06:14.260Z,15.20
2023-05-14T07:08:41.227Z,15.30
2023-05-14T07:11:08.222Z,15.40
2023-05-14T07:13:35.093Z,15.50
2023-05-14T07:16:02.062Z,15.70
2023-05-14T07:18:29.035Z,15.80
2023-05-14T07:20:56.041Z,15.80
2023-05-14T07:23:23.249Z,15.90
2023-05-14T07:25:50.308Z,15.80
2023-05-14T07:28:17.246Z,15.90
2023-05-14T07:30:44.168Z,16.00
2023-05-14T07:33:11.150Z,16.10
2023-05-14T07:35:38.148Z,16.10
2023-05-14T07:38:06.279Z,16.40
2023-05-14T07:40:33.243Z,16.50
2023-05-14T07:43:00.455Z,16.60
2023-05-14T07:45:27.429Z,16.70
2023-05-14T07:47:54.487Z,16.80
2023-05-14T07:50:22.359Z,16.90
2023-05-14T07:52:49.494Z,17.00
2023-05-14T07:55:16.958Z,17.30
2023-05-14T07:57:43.996Z,17.60
2023-05-14T08:00:12.202Z,17.90
2023-05-14T08:02:42.702Z,18.10
2023-05-14T08:05:10.432Z,18.30
2023-05-14T08:07:37.427Z,18.40
2023-05-14T08:10:04.825Z,18.60
2023-05-14T08:12:31.865Z,18.90
2023-05-14T08:14:58.817Z,18.90
2023-05-14T08:17:26.108Z,19.00
2023-05-14T08:19:53.830Z,19.10
2023-05-14T08:22:21.748Z,19.30
2023-05-14T08:24:48.875Z,19.60
2023-05-14T08:27:16.660Z,19.80
2023-05-14T08:29:43.642Z,20.10
2023-05-14T08:32:22.015Z,20.40
2023-05-14T08:34:50.653Z,20.70
2023-05-14T08:37:17.618Z,20.90
2023-05-14T08:39:44.915Z,21.10
2023-05-14T08:42:15.556Z,21.30
2023-05-14T08:44:53.010Z,21.50
2023-05-14T08:47:24.154Z,21.70
2023-05-14T08:50:07.437Z,21.90
2023-05-14T08:52:35.430Z,22.10
2023-05-14T08:55:06.792Z,22.30
2023-05-14T08:57:35.298Z,22.60
2023-05-14T09:00:15.441Z,22.80
2023-05-14T09:02:44.608Z,23.10
2023-05-14T09:05:12.336Z,23.30
2023-05-14T09:07:39.483Z,23.60
2023-05-14T09:10:08.960Z,23.80
2023-05-14T09:12:35.901Z,23.70
2023-05-14T09:15:03.402Z,23.80
2023-05-14T09:17:30.428Z,24.00
2023-05-14T09:19:58.285Z,24.30
2023-05-14T09:22:25.472Z,24.50
2023-05-14T09:25:12.031Z,24.80
2023-05-14T09:27:39.200Z,25.00
2023-05-14T09:39:18.233Z,25.20
2023-05-14T09:42:22.796Z,25.20
2023-05-14T09:45:40.693Z,25.30
2023-05-14T10:02:46.571Z,26.40
2023-05-14T10:05:15.866Z,26.70
2023-05-14T10:07:53.324Z,26.80
2023-05-14T10:10:24.360Z,26.70
2023-05-14T10:13:04.734Z,26.70
2023-05-14T10:15:42.126Z,26.70
2023-05-14T10:18:13.035Z,26.60
2023-05-14T10:20:42.015Z,26.60
2023-05-14T10:23:09.626Z,26.90
2023-05-14T10:25:37.542Z,27.00
2023-05-14T10:28:05.993Z,26.80
2023-05-14T10:30:33.080Z,26.50
2023-05-14T10:33:14.348Z,26.50
2023-05-14T10:35:59.868Z,26.70
2023-05-14T10:38:30.432Z,26.90
2023-05-14T10:41:03.662Z,27.10
2023-05-14T10:43:36.957Z,27.40
2023-05-14T10:46:04.998Z,27.60
2023-05-14T10:48:34.210Z,27.80
2023-05-14T10:51:04.862Z,27.60
2023-05-14T10:53:41.294Z,27.30
2023-05-14T10:56:11.367Z,26.80
2023-05-14T10:58:41.645Z,26.50
2023-05-14T11:01:11.063Z,26.60
2023-05-14T11:03:46.938Z,26.90
2023-05-14T11:06:15.894Z,27.10
2023-05-14T11:08:44.507Z,27.30
2023-05-14T11:11:14.818Z,27.50
2023-05-14T11:13:42.789Z,27.70
2023-05-14T11:18:41.719Z,28.20
2023-05-14T11:21:08.761Z,28.50
2023-05-14T11:23:36.755Z,28.60
2023-05-14T11:26:04.390Z,28.70
2023-05-14T11:28:31.523Z,28.80
2023-05-14T11:30:59.125Z,29.10
2023-05-14T11:33:29.234Z,29.40
2023-05-14T11:35:56.137Z,29.40
2023-05-14T11:38:23.002Z,29.30
2023-05-14T11:40:58.548Z,29.00
2023-05-14T11:43:28.977Z,28.60
2023-05-14T11:45:56.462Z,28.20
2023-05-14T11:48:24.261Z,27.70
2023-05-14T11:50:52.988Z,27.60
2023-05-14T11:53:25.935Z,27.60
2023-05-14T11:55:54.791Z,27.50
2023-05-14T11:58:22.455Z,27.30
2023-05-14T12:00:56.926Z,27.10
2023-05-14T12:03:29.480Z,26.70
2023-05-14T12:06:01.268Z,26.50
2023-05-14T12:08:30.156Z,26.30
2023-05-14T12:11:00.976Z,26.20
2023-05-14T12:13:30.637Z,26.00
2023-05-14T12:16:00.793Z,26.10
2023-05-14T12:18:31.272Z,26.40
2023-05-14T12:21:08.326Z,26.80
2023-05-14T12:23:38.272Z,27.30
2023-05-14T12:26:08.415Z,27.70
2023-05-14T12:28:42.393Z,28.00
2023-05-14T12:31:09.531Z,28.30
2023-05-14T12:33:36.476Z,28.60
2023-05-14T12:38:33.492Z,28.90
2023-05-14T12:41:00.377Z,28.90
2023-05-14T12:43:31.480Z,28.80
2023-05-14T12:45:58.402Z,28.40
2023-05-14T12:48:26.015Z,27.90
2023-05-14T12:50:52.926Z,27.40
2023-05-14T12:53:19.799Z,27.10
2023-05-14T12:55:46.870Z,26.80
2023-05-14T12:58:13.748Z,26.70
2023-05-14T13:00:40.802Z,26.90
2023-05-14T13:03:07.926Z,27.10
2023-05-14T13:05:35.176Z,27.10
2023-05-14T13:08:03.867Z,27.50
2023-05-14T13:10:31.008Z,27.60
2023-05-14T13:12:58.278Z,28.00
2023-05-14T13:15:25.345Z,28.10
2023-05-14T13:17:52.595Z,28.20
2023-05-14T13:20:19.961Z,28.40
2023-05-14T13:22:46.896Z,28.60
2023-05-14T13:25:13.798Z,28.60
2023-05-14T13:27:40.619Z,28.70
2023-05-14T13:30:08.358Z,28.90
2023-05-14T13:32:35.471Z,29.10
2023-05-14T13:35:02.412Z,29.30
2023-05-14T13:37:29.426Z,29.30
2023-05-14T13:39:56.335Z,29.30
2023-05-14T13:42:23.740Z,29.20
2023-05-14T13:44:50.775Z,29.20
2023-05-14T13:47:17.880Z,29.00
2023-05-14T13:49:45.132Z,28.70
2023-05-14T13:52:12.135Z,28.30
2023-05-14T13:54:42.876Z,27.90
2023-05-14T13:57:09.829Z,27.30
2023-05-14T13:59:36.931Z,27.00
2023-05-14T14:02:04.800Z,26.80
2023-05-14T14:04:32.094Z,26.60
2023-05-14T14:06:59.038Z,26.50
2023-05-14T14:09:26.068Z,26.40
2023-05-14T14:11:53.297Z,26.60
2023-05-14T14:14:21.086Z,26.70
2023-05-14T14:16:47.933Z,27.10
2023-05-14T14:19:16.284Z,27.40
2023-05-14T14:21:44.700Z,27.60
2023-05-14T14:24:11.611Z,27.50
2023-05-14T14:26:38.609Z,27.50
2023-05-14T14:29:05.575Z,27.60
2023-05-14T14:31:32.636Z,27.50
2023-05-14T14:33:59.656Z,27.40
2023-05-14T14:36:26.683Z,27.10
2023-05-14T14:38:53.549Z,26.80
2023-05-14T14:41:20.505Z,26.60
2023-05-14T14:43:47.395Z,26.40
2023-05-14T14:46:14.293Z,26.20
2023-05-14T14:48:41.256Z,25.90
2023-05-14T14:51:09.336Z,25.70
2023-05-14T14:53:37.160Z,25.60
2023-05-14T14:56:05.024Z,25.60
2023-05-14T14:58:32.552Z,25.60
2023-05-14T15:01:01.282Z,25.70
2023-05-14T15:03:28.966Z,25.70
2023-05-14T15:05:56.217Z,25.80
2023-05-14T15:08:29.359Z,25.80
2023-05-14T15:10:57.242Z,25.80
2023-05-14T15:13:24.793Z,25.90
2023-05-14T15:15:55.085Z,25.80
2023-05-14T15:18:22.125Z,25.70
2023-05-14T15:20:49.353Z,25.60
2023-05-14T15:23:16.356Z,25.50
2023-05-14T15:25:43.374Z,25.50
2023-05-14T15:28:10.895Z,25.40
2023-05-14T15:30:37.986Z,25.30
2023-05-14T15:33:08.027Z,25.40
2023-05-14T15:35:36.377Z,25.30
2023-05-14T15:38:03.524Z,25.30
2023-05-14T15:40:30.584Z,25.10
2023-05-14T15:42:57.586Z,25.00
2023-05-14T15:45:24.644Z,24.90
2023-05-14T15:47:51.744Z,24.80
2023-05-14T15:50:19.500Z,24.70
2023-05-14T15:52:46.520Z,24.60
2023-05-14T15:55:13.653Z,24.50
2023-05-14T15:57:40.626Z,24.40
2023-05-14T16:00:17.726Z,24.30
2023-05-14T16:02:47.710Z,24.30
2023-05-14T16:05:20.675Z,24.20
2023-05-14T16:07:47.868Z,24.10
2023-05-14T16:10:16.555Z,24.10
2023-05-14T16:12:49.022Z,24.10
2023-05-14T16:15:24.814Z,24.00
2023-05-14T16:18:04.068Z,24.00
2023-05-14T16:21:39.374Z,23.80
2023-05-14T16:33:19.284Z,23.70
2023-05-14T16:36:47.350Z,23.60
2023-05-14T16:39:30.088Z,23.50
2023-05-14T16:42:05.618Z,23.50
2023-05-14T17:00:36.246Z,23.20
2023-05-14T17:03:47.095Z,23.20
2023-05-14T17:10:22.604Z,23.10
2023-05-14T17:38:57.979Z,22.40
2023-05-14T17:41:45.945Z,22.30
2023-05-14T17:49:42.306Z,22.10
2023-05-14T18:14:45.667Z,21.50
2023-05-14T19:35:18.858Z,19.60
2023-05-14T19:38:06.448Z,19.50
2023-05-14T19:41:24.790Z,19.40
2023-05-14T19:45:50.002Z,19.40
2023-05-14T19:52:28.103Z,19.20
2023-05-14T19:55:11.784Z,19.20
2023-05-14T20:02:03.431Z,19.00
2023-05-14T20:06:16.227Z,18.90
2023-05-14T20:17:15.184Z,18.70
2023-05-14T20:21:01.594Z,18.60
2023-05-14T20:26:55.059Z,18.50
2023-05-14T20:29:36.214Z,18.40
2023-05-14T20:32:40.131Z,18.40
2023-05-14T20:35:27.633Z,18.20
2023-05-14T20:38:30.092Z,18.20
2023-05-14T20:41:09.408Z,18.10
2023-05-14T20:44:45.887Z,17.90
2023-05-14T20:47:48.889Z,17.80
2023-05-14T20:50:34.464Z,17.70
2023-05-14T20:53:42.170Z,17.60
2023-05-14T20:56:41.763Z,17.60
2023-05-14T21:00:02.368Z,17.50
2023-05-14T21:07:44.355Z,17.40
2023-05-14T21:10:11.519Z,17.20
2023-05-14T21:12:38.406Z,17.20
2023-05-14T21:15:06.098Z,17.10
2023-05-14T21:17:33.073Z,17.10
2023-05-14T21:20:00.002Z,17.10
2023-05-14T21:22:27.602Z,17.10
2023-05-14T21:24:55.939Z,17.00
2023-05-14T21:27:23.060Z,17.00
2023-05-14T21:29:50.025Z,17.00
2023-05-14T21:32:17.054Z,17.00
2023-05-14T21:34:43.895Z,17.00
2023-05-14T21:37:10.868Z,17.00
2023-05-14T21:39:37.815Z,17.00
2023-05-14T21:42:05.128Z,17.00
2023-05-14T21:44:31.986Z,17.00
2023-05-14T21:46:59.521Z,16.90
2023-05-14T21:49:26.388Z,16.90
2023-05-14T21:51:54.514Z,16.90
2023-05-14T21:54:21.538Z,16.90
2023-05-14T21:56:48.563Z,16.90
2023-05-14T21:59:15.674Z,16.90
2023-05-14T22:04:12.954Z,16.90
2023-05-14T22:06:40.230Z,16.90
2023-05-14T22:09:07.161Z,16.90
2023-05-14T22:11:34.090Z,16.80
2023-05-14T22:14:00.989Z,16.80
2023-05-14T22:16:27.925Z,16.80
2023-05-14T22:18:54.988Z,16.80
2023-05-14T22:21:21.940Z,16.80
2023-05-14T22:23:50.267Z,16.80
2023-05-14T22:26:17.377Z,16.70
2023-05-14T22:28:44.358Z,16.70
2023-05-14T22:31:11.369Z,16.70
2023-05-14T22:33:38.295Z,16.60
2023-05-14T22:36:06.943Z,16.60
2023-05-14T22:38:34.317Z,16.60
2023-05-14T22:41:01.230Z,16.50
2023-05-14T22:43:28.871Z,16.50
2023-05-14T22:46:11.014Z,16.50
2023-05-14T22:48:45.564Z,16.40
2023-05-14T22:51:23.042Z,16.40
2023-05-14T22:54:18.418Z,16.40
2023-05-14T22:56:49.998Z,16.30
2023-05-14T23:00:34.511Z,16.30
2023-05-14T23:03:24.507Z,16.30
2023-05-14T23:06:02.017Z,16.20
2023-05-14T23:08:52.584Z,16.20
2023-05-14T23:15:05.831Z,16.10
2023-05-14T23:28:30.601Z,15.80
2023-05-14T23:41:03.628Z,15.60
2023-05-14T23:44:10.046Z,15.50
2023-05-14T23:46:49.064Z,15.50
